sensor_id;sensor_type;location;lat;lon;timestamp;P1;durP1;ratioP1;P2;durP2;ratioP2
17177;SDS011;8704;52.006;4.374;2022-08-25T00:00:17;23.23;;;21.02;;
17177;SDS011;8704;52.006;4.374;2022-08-25T00:02:46;20.65;;;18.50;;
17177;SDS011;8704;52.006;4.374;2022-08-25T00:05:21;19.58;;;17.58;;
17177;SDS011;8704;52.006;4.374;2022-08-25T00:07:54;21.13;;;19.08;;
17177;SDS011;8704;52.006;4.374;2022-08-25T00:10:22;22.92;;;20.83;;
17177;SDS011;8704;52.006;4.374;2022-08-25T00:12:52;24.67;;;21.45;;
17177;SDS011;8704;52.006;4.374;2022-08-25T00:15:20;20.13;;;18.02;;
17177;SDS011;8704;52.006;4.374;2022-08-25T00:17:48;20.48;;;18.48;;
17177;SDS011;8704;52.006;4.374;2022-08-25T00:20:17;22.45;;;20.17;;
17177;SDS011;8704;52.006;4.374;2022-08-25T00:22:45;20.95;;;18.77;;
17177;SDS011;8704;52.006;4.374;2022-08-25T00:25:14;25.58;;;23.02;;
17177;SDS011;8704;52.006;4.374;2022-08-25T00:27:42;24.75;;;22.23;;
17177;SDS011;8704;52.006;4.374;2022-08-25T00:30:13;22.88;;;20.70;;
17177;SDS011;8704;52.006;4.374;2022-08-25T00:32:42;25.50;;;23.00;;
17177;SDS011;8704;52.006;4.374;2022-08-25T00:35:22;24.00;;;21.60;;
17177;SDS011;8704;52.006;4.374;2022-08-25T00:37:51;23.88;;;21.58;;
17177;SDS011;8704;52.006;4.374;2022-08-25T00:40:19;28.00;;;25.23;;
17177;SDS011;8704;52.006;4.374;2022-08-25T00:42:47;29.75;;;26.92;;
17177;SDS011;8704;52.006;4.374;2022-08-25T00:45:16;23.70;;;21.40;;
17177;SDS011;8704;52.006;4.374;2022-08-25T00:47:44;30.90;;;28.05;;
17177;SDS011;8704;52.006;4.374;2022-08-25T00:50:13;24.80;;;22.40;;
17177;SDS011;8704;52.006;4.374;2022-08-25T00:52:43;24.67;;;22.33;;
17177;SDS011;8704;52.006;4.374;2022-08-25T00:55:14;25.05;;;22.63;;
17177;SDS011;8704;52.006;4.374;2022-08-25T00:57:49;25.80;;;23.20;;
17177;SDS011;8704;52.006;4.374;2022-08-25T01:00:24;29.80;;;26.80;;
17177;SDS011;8704;52.006;4.374;2022-08-25T01:02:54;25.92;;;23.30;;
17177;SDS011;8704;52.006;4.374;2022-08-25T01:05:24;25.83;;;23.20;;
17177;SDS011;8704;52.006;4.374;2022-08-25T01:07:53;25.10;;;22.60;;
17177;SDS011;8704;52.006;4.374;2022-08-25T01:10:24;25.73;;;23.33;;
17177;SDS011;8704;52.006;4.374;2022-08-25T01:12:55;28.50;;;25.63;;
17177;SDS011;8704;52.006;4.374;2022-08-25T01:17:56;30.27;;;27.27;;
17177;SDS011;8704;52.006;4.374;2022-08-25T01:20:26;35.28;;;31.83;;
17177;SDS011;8704;52.006;4.374;2022-08-25T01:22:57;24.10;;;21.73;;
17177;SDS011;8704;52.006;4.374;2022-08-25T01:25:27;29.02;;;26.05;;
17177;SDS011;8704;52.006;4.374;2022-08-25T01:28:03;26.75;;;24.23;;
17177;SDS011;8704;52.006;4.374;2022-08-25T01:30:32;25.77;;;23.33;;
17177;SDS011;8704;52.006;4.374;2022-08-25T01:33:01;31.55;;;28.35;;
17177;SDS011;8704;52.006;4.374;2022-08-25T01:35:30;30.25;;;27.35;;
17177;SDS011;8704;52.006;4.374;2022-08-25T01:38:00;32.47;;;29.25;;
17177;SDS011;8704;52.006;4.374;2022-08-25T01:40:29;29.27;;;26.40;;
17177;SDS011;8704;52.006;4.374;2022-08-25T01:43:01;25.85;;;23.30;;
17177;SDS011;8704;52.006;4.374;2022-08-25T01:45:38;29.00;;;26.20;;
17177;SDS011;8704;52.006;4.374;2022-08-25T01:48:08;27.10;;;24.67;;
17177;SDS011;8704;52.006;4.374;2022-08-25T01:50:37;32.88;;;29.48;;
17177;SDS011;8704;52.006;4.374;2022-08-25T01:53:11;28.10;;;25.35;;
17177;SDS011;8704;52.006;4.374;2022-08-25T01:55:44;28.95;;;26.20;;
17177;SDS011;8704;52.006;4.374;2022-08-25T01:58:21;28.20;;;25.65;;
17177;SDS011;8704;52.006;4.374;2022-08-25T02:00:51;25.83;;;23.45;;
17177;SDS011;8704;52.006;4.374;2022-08-25T02:03:22;28.33;;;25.52;;
17177;SDS011;8704;52.006;4.374;2022-08-25T02:05:51;26.58;;;23.98;;
17177;SDS011;8704;52.006;4.374;2022-08-25T02:08:21;24.20;;;22.02;;
17177;SDS011;8704;52.006;4.374;2022-08-25T02:10:50;27.85;;;25.25;;
17177;SDS011;8704;52.006;4.374;2022-08-25T02:13:19;26.85;;;24.02;;
17177;SDS011;8704;52.006;4.374;2022-08-25T02:15:57;28.52;;;25.83;;
17177;SDS011;8704;52.006;4.374;2022-08-25T02:18:27;26.38;;;23.80;;
17177;SDS011;8704;52.006;4.374;2022-08-25T02:20:56;25.90;;;23.40;;
17177;SDS011;8704;52.006;4.374;2022-08-25T02:23:25;25.23;;;22.92;;
17177;SDS011;8704;52.006;4.374;2022-08-25T02:25:54;30.02;;;27.17;;
17177;SDS011;8704;52.006;4.374;2022-08-25T02:28:23;31.48;;;28.73;;
17177;SDS011;8704;52.006;4.374;2022-08-25T02:30:51;26.38;;;23.92;;
17177;SDS011;8704;52.006;4.374;2022-08-25T02:33:26;28.63;;;25.83;;
17177;SDS011;8704;52.006;4.374;2022-08-25T02:35:56;27.60;;;24.85;;
17177;SDS011;8704;52.006;4.374;2022-08-25T02:38:26;32.88;;;29.67;;
17177;SDS011;8704;52.006;4.374;2022-08-25T02:40:54;30.05;;;27.08;;
17177;SDS011;8704;52.006;4.374;2022-08-25T02:43:23;27.15;;;24.73;;
17177;SDS011;8704;52.006;4.374;2022-08-25T02:45:52;26.17;;;23.67;;
17177;SDS011;8704;52.006;4.374;2022-08-25T02:48:21;29.15;;;26.35;;
17177;SDS011;8704;52.006;4.374;2022-08-25T02:50:50;26.55;;;24.15;;
17177;SDS011;8704;52.006;4.374;2022-08-25T02:53:19;30.17;;;27.38;;
17177;SDS011;8704;52.006;4.374;2022-08-25T02:55:49;27.90;;;25.20;;
17177;SDS011;8704;52.006;4.374;2022-08-25T02:58:16;28.10;;;25.52;;
17177;SDS011;8704;52.006;4.374;2022-08-25T03:00:45;31.17;;;28.27;;
17177;SDS011;8704;52.006;4.374;2022-08-25T03:03:14;36.00;;;32.60;;
17177;SDS011;8704;52.006;4.374;2022-08-25T03:05:42;27.02;;;24.42;;
17177;SDS011;8704;52.006;4.374;2022-08-25T03:08:11;26.92;;;24.40;;
17177;SDS011;8704;52.006;4.374;2022-08-25T03:10:39;29.58;;;26.60;;
17177;SDS011;8704;52.006;4.374;2022-08-25T03:13:08;28.20;;;25.45;;
17177;SDS011;8704;52.006;4.374;2022-08-25T03:15:36;27.88;;;25.23;;
17177;SDS011;8704;52.006;4.374;2022-08-25T03:18:07;27.48;;;24.98;;
17177;SDS011;8704;52.006;4.374;2022-08-25T03:20:39;28.83;;;26.15;;
17177;SDS011;8704;52.006;4.374;2022-08-25T03:23:07;28.85;;;26.05;;
17177;SDS011;8704;52.006;4.374;2022-08-25T03:25:37;26.45;;;23.85;;
17177;SDS011;8704;52.006;4.374;2022-08-25T03:28:27;25.75;;;23.25;;
17177;SDS011;8704;52.006;4.374;2022-08-25T03:30:58;28.80;;;26.15;;
17177;SDS011;8704;52.006;4.374;2022-08-25T03:33:28;26.92;;;24.33;;
17177;SDS011;8704;52.006;4.374;2022-08-25T03:35:56;30.73;;;27.75;;
17177;SDS011;8704;52.006;4.374;2022-08-25T03:38:24;25.05;;;22.65;;
17177;SDS011;8704;52.006;4.374;2022-08-25T03:40:53;27.55;;;24.90;;
17177;SDS011;8704;52.006;4.374;2022-08-25T03:43:21;25.73;;;23.15;;
17177;SDS011;8704;52.006;4.374;2022-08-25T03:45:50;25.15;;;22.55;;
17177;SDS011;8704;52.006;4.374;2022-08-25T03:48:18;26.05;;;23.55;;
17177;SDS011;8704;52.006;4.374;2022-08-25T03:50:48;26.33;;;23.83;;
17177;SDS011;8704;52.006;4.374;2022-08-25T03:53:17;24.80;;;22.40;;
17177;SDS011;8704;52.006;4.374;2022-08-25T03:55:45;22.25;;;20.15;;
17177;SDS011;8704;52.006;4.374;2022-08-25T03:58:13;25.30;;;22.80;;
17177;SDS011;8704;52.006;4.374;2022-08-25T04:00:42;23.42;;;21.00;;
17177;SDS011;8704;52.006;4.374;2022-08-25T04:03:12;25.17;;;22.70;;
17177;SDS011;8704;52.006;4.374;2022-08-25T04:05:40;23.60;;;20.88;;
17177;SDS011;8704;52.006;4.374;2022-08-25T04:08:08;24.75;;;22.20;;
17177;SDS011;8704;52.006;4.374;2022-08-25T04:10:38;25.02;;;22.83;;
17177;SDS011;8704;52.006;4.374;2022-08-25T04:13:06;22.73;;;20.73;;
17177;SDS011;8704;52.006;4.374;2022-08-25T04:15:35;22.35;;;20.15;;
17177;SDS011;8704;52.006;4.374;2022-08-25T04:18:03;22.35;;;20.25;;
17177;SDS011;8704;52.006;4.374;2022-08-25T04:20:33;23.23;;;20.92;;
17177;SDS011;8704;52.006;4.374;2022-08-25T04:23:01;23.17;;;20.70;;
17177;SDS011;8704;52.006;4.374;2022-08-25T04:25:29;22.00;;;19.88;;
17177;SDS011;8704;52.006;4.374;2022-08-25T04:27:57;24.35;;;21.75;;
17177;SDS011;8704;52.006;4.374;2022-08-25T04:30:25;22.00;;;19.83;;
17177;SDS011;8704;52.006;4.374;2022-08-25T04:32:53;22.58;;;20.58;;
17177;SDS011;8704;52.006;4.374;2022-08-25T04:35:21;20.67;;;18.58;;
17177;SDS011;8704;52.006;4.374;2022-08-25T04:37:51;21.85;;;19.70;;
17177;SDS011;8704;52.006;4.374;2022-08-25T04:40:19;20.45;;;18.48;;
17177;SDS011;8704;52.006;4.374;2022-08-25T04:42:54;18.88;;;17.10;;
17177;SDS011;8704;52.006;4.374;2022-08-25T04:45:22;22.58;;;20.20;;
17177;SDS011;8704;52.006;4.374;2022-08-25T04:47:50;20.58;;;18.58;;
17177;SDS011;8704;52.006;4.374;2022-08-25T04:50:20;22.02;;;19.92;;
17177;SDS011;8704;52.006;4.374;2022-08-25T04:52:48;23.23;;;20.92;;
17177;SDS011;8704;52.006;4.374;2022-08-25T04:55:17;21.45;;;19.42;;
17177;SDS011;8704;52.006;4.374;2022-08-25T04:57:45;21.35;;;19.20;;
17177;SDS011;8704;52.006;4.374;2022-08-25T05:00:14;20.55;;;18.45;;
17177;SDS011;8704;52.006;4.374;2022-08-25T05:02:43;21.65;;;19.60;;
17177;SDS011;8704;52.006;4.374;2022-08-25T05:05:11;22.25;;;20.20;;
17177;SDS011;8704;52.006;4.374;2022-08-25T05:07:39;17.77;;;15.80;;
17177;SDS011;8704;52.006;4.374;2022-08-25T05:10:07;19.55;;;17.65;;
17177;SDS011;8704;52.006;4.374;2022-08-25T05:12:36;20.65;;;18.52;;
17177;SDS011;8704;52.006;4.374;2022-08-25T05:15:06;17.88;;;15.98;;
17177;SDS011;8704;52.006;4.374;2022-08-25T05:17:48;20.10;;;18.20;;
17177;SDS011;8704;52.006;4.374;2022-08-25T05:20:21;18.77;;;16.88;;
17177;SDS011;8704;52.006;4.374;2022-08-25T05:22:50;19.35;;;17.50;;
17177;SDS011;8704;52.006;4.374;2022-08-25T05:25:19;18.35;;;16.55;;
17177;SDS011;8704;52.006;4.374;2022-08-25T05:27:48;17.85;;;16.02;;
17177;SDS011;8704;52.006;4.374;2022-08-25T05:30:16;17.92;;;15.90;;
17177;SDS011;8704;52.006;4.374;2022-08-25T05:32:44;16.88;;;15.07;;
17177;SDS011;8704;52.006;4.374;2022-08-25T05:35:12;18.45;;;16.58;;
17177;SDS011;8704;52.006;4.374;2022-08-25T05:37:40;19.23;;;17.20;;
17177;SDS011;8704;52.006;4.374;2022-08-25T05:40:09;18.77;;;16.00;;
17177;SDS011;8704;52.006;4.374;2022-08-25T05:42:37;18.42;;;16.73;;
17177;SDS011;8704;52.006;4.374;2022-08-25T05:45:07;18.08;;;16.38;;
17177;SDS011;8704;52.006;4.374;2022-08-25T05:47:45;18.50;;;16.80;;
17177;SDS011;8704;52.006;4.374;2022-08-25T05:50:13;18.98;;;17.10;;
17177;SDS011;8704;52.006;4.374;2022-08-25T05:52:42;18.95;;;17.05;;
17177;SDS011;8704;52.006;4.374;2022-08-25T05:55:10;19.20;;;17.40;;
17177;SDS011;8704;52.006;4.374;2022-08-25T05:57:38;18.75;;;16.92;;
17177;SDS011;8704;52.006;4.374;2022-08-25T06:00:08;19.00;;;16.70;;
17177;SDS011;8704;52.006;4.374;2022-08-25T06:02:37;18.42;;;16.63;;
17177;SDS011;8704;52.006;4.374;2022-08-25T06:05:09;18.35;;;15.60;;
17177;SDS011;8704;52.006;4.374;2022-08-25T06:07:39;20.02;;;17.90;;
17177;SDS011;8704;52.006;4.374;2022-08-25T06:10:07;19.85;;;17.75;;
17177;SDS011;8704;52.006;4.374;2022-08-25T06:12:37;23.05;;;17.42;;
17177;SDS011;8704;52.006;4.374;2022-08-25T06:15:10;18.25;;;16.05;;
17177;SDS011;8704;52.006;4.374;2022-08-25T06:17:40;20.50;;;18.50;;
17177;SDS011;8704;52.006;4.374;2022-08-25T06:20:09;20.67;;;17.02;;
17177;SDS011;8704;52.006;4.374;2022-08-25T06:22:39;21.55;;;19.23;;
17177;SDS011;8704;52.006;4.374;2022-08-25T06:25:08;19.38;;;17.27;;
17177;SDS011;8704;52.006;4.374;2022-08-25T06:27:37;19.30;;;17.40;;
17177;SDS011;8704;52.006;4.374;2022-08-25T06:30:06;19.77;;;17.85;;
17177;SDS011;8704;52.006;4.374;2022-08-25T06:32:38;19.02;;;17.02;;
17177;SDS011;8704;52.006;4.374;2022-08-25T06:35:08;19.77;;;17.67;;
17177;SDS011;8704;52.006;4.374;2022-08-25T06:37:38;19.63;;;17.70;;
17177;SDS011;8704;52.006;4.374;2022-08-25T06:40:08;21.27;;;18.88;;
17177;SDS011;8704;52.006;4.374;2022-08-25T06:42:37;20.65;;;18.55;;
17177;SDS011;8704;52.006;4.374;2022-08-25T06:45:05;20.73;;;18.02;;
17177;SDS011;8704;52.006;4.374;2022-08-25T06:47:34;18.98;;;17.10;;
17177;SDS011;8704;52.006;4.374;2022-08-25T06:50:04;21.13;;;16.77;;
17177;SDS011;8704;52.006;4.374;2022-08-25T06:52:32;18.02;;;16.15;;
17177;SDS011;8704;52.006;4.374;2022-08-25T06:55:01;20.65;;;17.80;;
17177;SDS011;8704;52.006;4.374;2022-08-25T06:57:29;18.80;;;16.85;;
17177;SDS011;8704;52.006;4.374;2022-08-25T07:00:00;16.90;;;15.20;;
17177;SDS011;8704;52.006;4.374;2022-08-25T07:02:29;17.77;;;15.98;;
17177;SDS011;8704;52.006;4.374;2022-08-25T07:05:00;17.45;;;15.25;;
17177;SDS011;8704;52.006;4.374;2022-08-25T07:07:31;16.92;;;14.38;;
17177;SDS011;8704;52.006;4.374;2022-08-25T07:10:09;21.08;;;16.90;;
17177;SDS011;8704;52.006;4.374;2022-08-25T07:12:38;17.77;;;15.25;;
17177;SDS011;8704;52.006;4.374;2022-08-25T07:15:07;16.83;;;14.75;;
17177;SDS011;8704;52.006;4.374;2022-08-25T07:17:45;16.02;;;13.32;;
17177;SDS011;8704;52.006;4.374;2022-08-25T07:20:14;15.60;;;12.93;;
17177;SDS011;8704;52.006;4.374;2022-08-25T07:22:46;19.98;;;14.18;;
17177;SDS011;8704;52.006;4.374;2022-08-25T07:25:14;15.13;;;11.70;;
17177;SDS011;8704;52.006;4.374;2022-08-25T07:27:43;15.68;;;14.07;;
17177;SDS011;8704;52.006;4.374;2022-08-25T07:30:11;16.27;;;12.57;;
17177;SDS011;8704;52.006;4.374;2022-08-25T07:32:39;19.00;;;12.05;;
17177;SDS011;8704;52.006;4.374;2022-08-25T07:35:08;17.17;;;12.38;;
17177;SDS011;8704;52.006;4.374;2022-08-25T07:37:47;14.93;;;11.60;;
17177;SDS011;8704;52.006;4.374;2022-08-25T07:40:17;13.05;;;11.25;;
17177;SDS011;8704;52.006;4.374;2022-08-25T07:42:47;17.23;;;10.87;;
17177;SDS011;8704;52.006;4.374;2022-08-25T07:45:16;13.82;;;9.95;;
17177;SDS011;8704;52.006;4.374;2022-08-25T07:47:46;15.10;;;10.95;;
17177;SDS011;8704;52.006;4.374;2022-08-25T07:50:17;11.27;;;9.15;;
17177;SDS011;8704;52.006;4.374;2022-08-25T07:52:47;16.23;;;11.18;;
17177;SDS011;8704;52.006;4.374;2022-08-25T07:55:21;14.07;;;10.88;;
17177;SDS011;8704;52.006;4.374;2022-08-25T07:57:49;13.50;;;8.90;;
17177;SDS011;8704;52.006;4.374;2022-08-25T08:00:22;12.52;;;9.73;;
17177;SDS011;8704;52.006;4.374;2022-08-25T08:02:53;10.85;;;8.60;;
17177;SDS011;8704;52.006;4.374;2022-08-25T08:05:21;17.80;;;8.77;;
17177;SDS011;8704;52.006;4.374;2022-08-25T08:07:51;12.05;;;7.97;;
17177;SDS011;8704;52.006;4.374;2022-08-25T08:10:20;10.68;;;6.93;;
17177;SDS011;8704;52.006;4.374;2022-08-25T08:13:09;11.52;;;7.47;;
17177;SDS011;8704;52.006;4.374;2022-08-25T08:15:43;11.90;;;7.25;;
17177;SDS011;8704;52.006;4.374;2022-08-25T08:18:11;11.80;;;6.65;;
17177;SDS011;8704;52.006;4.374;2022-08-25T08:20:39;12.25;;;6.25;;
17177;SDS011;8704;52.006;4.374;2022-08-25T08:23:12;9.43;;;6.00;;
17177;SDS011;8704;52.006;4.374;2022-08-25T08:25:40;11.20;;;6.13;;
17177;SDS011;8704;52.006;4.374;2022-08-25T08:28:08;10.57;;;5.60;;
17177;SDS011;8704;52.006;4.374;2022-08-25T08:30:36;11.80;;;5.40;;
17177;SDS011;8704;52.006;4.374;2022-08-25T08:33:18;9.50;;;4.85;;
17177;SDS011;8704;52.006;4.374;2022-08-25T08:35:54;9.95;;;5.13;;
17177;SDS011;8704;52.006;4.374;2022-08-25T08:38:25;10.57;;;4.72;;
17177;SDS011;8704;52.006;4.374;2022-08-25T08:40:57;13.02;;;4.72;;
17177;SDS011;8704;52.006;4.374;2022-08-25T08:43:51;9.05;;;4.30;;
17177;SDS011;8704;52.006;4.374;2022-08-25T08:46:25;7.82;;;4.57;;
17177;SDS011;8704;52.006;4.374;2022-08-25T08:49:03;8.80;;;4.97;;
17177;SDS011;8704;52.006;4.374;2022-08-25T08:51:46;8.73;;;4.88;;
17177;SDS011;8704;52.006;4.374;2022-08-25T08:54:22;9.15;;;4.20;;
17177;SDS011;8704;52.006;4.374;2022-08-25T08:56:57;10.20;;;4.40;;
17177;SDS011;8704;52.006;4.374;2022-08-25T08:59:33;7.22;;;4.40;;
17177;SDS011;8704;52.006;4.374;2022-08-25T09:02:15;7.22;;;4.20;;
17177;SDS011;8704;52.006;4.374;2022-08-25T09:05:13;6.47;;;4.28;;
17177;SDS011;8704;52.006;4.374;2022-08-25T09:07:46;6.18;;;4.10;;
17177;SDS011;8704;52.006;4.374;2022-08-25T09:10:22;7.60;;;4.10;;
17177;SDS011;8704;52.006;4.374;2022-08-25T09:15:27;7.40;;;4.07;;
17177;SDS011;8704;52.006;4.374;2022-08-25T09:18:25;10.60;;;4.45;;
17177;SDS011;8704;52.006;4.374;2022-08-25T09:23:55;9.43;;;4.05;;
17177;SDS011;8704;52.006;4.374;2022-08-25T09:26:41;8.45;;;4.65;;
17177;SDS011;8704;52.006;4.374;2022-08-25T09:29:17;6.68;;;4.13;;
17177;SDS011;8704;52.006;4.374;2022-08-25T09:31:50;6.25;;;4.07;;
17177;SDS011;8704;52.006;4.374;2022-08-25T09:34:31;10.10;;;4.28;;
17177;SDS011;8704;52.006;4.374;2022-08-25T09:37:00;8.55;;;4.00;;
17177;SDS011;8704;52.006;4.374;2022-08-25T09:39:28;5.75;;;3.90;;
17177;SDS011;8704;52.006;4.374;2022-08-25T09:41:58;8.93;;;4.10;;
17177;SDS011;8704;52.006;4.374;2022-08-25T09:44:27;7.65;;;3.75;;
17177;SDS011;8704;52.006;4.374;2022-08-25T09:47:00;8.35;;;3.90;;
17177;SDS011;8704;52.006;4.374;2022-08-25T09:49:34;8.45;;;3.58;;
17177;SDS011;8704;52.006;4.374;2022-08-25T09:52:15;6.28;;;4.10;;
17177;SDS011;8704;52.006;4.374;2022-08-25T09:54:50;8.15;;;4.00;;
17177;SDS011;8704;52.006;4.374;2022-08-25T09:57:28;8.10;;;3.78;;
17177;SDS011;8704;52.006;4.374;2022-08-25T10:00:08;8.00;;;3.72;;
17177;SDS011;8704;52.006;4.374;2022-08-25T10:02:39;7.43;;;3.40;;
17177;SDS011;8704;52.006;4.374;2022-08-25T10:05:19;6.55;;;3.55;;
17177;SDS011;8704;52.006;4.374;2022-08-25T10:07:50;7.30;;;3.58;;
17177;SDS011;8704;52.006;4.374;2022-08-25T10:10:22;8.20;;;3.70;;
17177;SDS011;8704;52.006;4.374;2022-08-25T10:12:59;7.00;;;3.58;;
17177;SDS011;8704;52.006;4.374;2022-08-25T10:15:32;6.97;;;3.55;;
17177;SDS011;8704;52.006;4.374;2022-08-25T10:18:15;8.52;;;3.47;;
17177;SDS011;8704;52.006;4.374;2022-08-25T10:21:00;6.90;;;4.20;;
17177;SDS011;8704;52.006;4.374;2022-08-25T10:23:33;7.78;;;3.67;;
17177;SDS011;8704;52.006;4.374;2022-08-25T10:28:39;6.22;;;3.80;;
17177;SDS011;8704;52.006;4.374;2022-08-25T10:31:17;7.00;;;3.80;;
17177;SDS011;8704;52.006;4.374;2022-08-25T10:33:54;6.70;;;3.92;;
17177;SDS011;8704;52.006;4.374;2022-08-25T10:36:37;7.70;;;3.65;;
17177;SDS011;8704;52.006;4.374;2022-08-25T10:39:15;8.82;;;3.70;;
17177;SDS011;8704;52.006;4.374;2022-08-25T10:42:02;8.65;;;3.90;;
17177;SDS011;8704;52.006;4.374;2022-08-25T10:44:47;8.05;;;3.78;;
17177;SDS011;8704;52.006;4.374;2022-08-25T10:47:50;5.13;;;3.50;;
17177;SDS011;8704;52.006;4.374;2022-08-25T10:50:34;7.80;;;3.53;;
17177;SDS011;8704;52.006;4.374;2022-08-25T10:53:17;6.78;;;3.40;;
17177;SDS011;8704;52.006;4.374;2022-08-25T10:55:59;8.40;;;3.50;;
17177;SDS011;8704;52.006;4.374;2022-08-25T10:58:40;6.57;;;3.75;;
17177;SDS011;8704;52.006;4.374;2022-08-25T11:01:26;5.85;;;3.95;;
17177;SDS011;8704;52.006;4.374;2022-08-25T11:04:10;7.80;;;3.80;;
17177;SDS011;8704;52.006;4.374;2022-08-25T11:09:17;5.53;;;3.00;;
17177;SDS011;8704;52.006;4.374;2022-08-25T11:11:51;6.60;;;3.05;;
17177;SDS011;8704;52.006;4.374;2022-08-25T11:14:24;5.47;;;3.35;;
17177;SDS011;8704;52.006;4.374;2022-08-25T11:17:04;5.40;;;2.90;;
17177;SDS011;8704;52.006;4.374;2022-08-25T11:19:36;8.07;;;3.13;;
17177;SDS011;8704;52.006;4.374;2022-08-25T11:22:06;5.35;;;2.83;;
17177;SDS011;8704;52.006;4.374;2022-08-25T11:24:51;6.03;;;2.90;;
17177;SDS011;8704;52.006;4.374;2022-08-25T11:27:27;5.00;;;3.23;;
17177;SDS011;8704;52.006;4.374;2022-08-25T11:30:05;6.55;;;2.88;;
17177;SDS011;8704;52.006;4.374;2022-08-25T11:32:37;6.53;;;2.95;;
17177;SDS011;8704;52.006;4.374;2022-08-25T11:35:07;7.60;;;3.03;;
17177;SDS011;8704;52.006;4.374;2022-08-25T11:37:40;7.60;;;4.80;;
17177;SDS011;8704;52.006;4.374;2022-08-25T11:40:27;5.25;;;3.60;;
17177;SDS011;8704;52.006;4.374;2022-08-25T11:43:10;7.35;;;3.28;;
17177;SDS011;8704;52.006;4.374;2022-08-25T11:45:53;6.68;;;3.30;;
17177;SDS011;8704;52.006;4.374;2022-08-25T11:48:38;5.43;;;3.30;;
17177;SDS011;8704;52.006;4.374;2022-08-25T11:51:26;7.15;;;3.40;;
17177;SDS011;8704;52.006;4.374;2022-08-25T11:54:05;6.15;;;3.35;;
17177;SDS011;8704;52.006;4.374;2022-08-25T11:56:41;5.38;;;3.40;;
17177;SDS011;8704;52.006;4.374;2022-08-25T12:02:29;6.97;;;3.90;;
17177;SDS011;8704;52.006;4.374;2022-08-25T12:05:02;6.45;;;3.58;;
17177;SDS011;8704;52.006;4.374;2022-08-25T12:11:00;6.75;;;3.47;;
17177;SDS011;8704;52.006;4.374;2022-08-25T12:13:38;5.95;;;3.30;;
17177;SDS011;8704;52.006;4.374;2022-08-25T12:21:55;10.80;;;3.72;;
17177;SDS011;8704;52.006;4.374;2022-08-25T12:24:47;6.80;;;3.75;;
17177;SDS011;8704;52.006;4.374;2022-08-25T12:27:20;8.55;;;3.72;;
17177;SDS011;8704;52.006;4.374;2022-08-25T12:30:00;7.20;;;3.70;;
17177;SDS011;8704;52.006;4.374;2022-08-25T12:32:39;8.60;;;4.07;;
17177;SDS011;8704;52.006;4.374;2022-08-25T12:35:28;7.13;;;3.92;;
17177;SDS011;8704;52.006;4.374;2022-08-25T12:38:00;10.02;;;4.60;;
17177;SDS011;8704;52.006;4.374;2022-08-25T12:40:35;8.40;;;4.55;;
17177;SDS011;8704;52.006;4.374;2022-08-25T12:43:07;10.57;;;4.57;;
17177;SDS011;8704;52.006;4.374;2022-08-25T12:45:42;10.70;;;5.20;;
17177;SDS011;8704;52.006;4.374;2022-08-25T12:51:09;11.65;;;6.00;;
17177;SDS011;8704;52.006;4.374;2022-08-25T12:53:48;9.93;;;5.47;;
17177;SDS011;8704;52.006;4.374;2022-08-25T12:56:21;10.73;;;8.38;;
17177;SDS011;8704;52.006;4.374;2022-08-25T12:58:54;12.27;;;6.60;;
17177;SDS011;8704;52.006;4.374;2022-08-25T13:01:42;16.42;;;8.23;;
17177;SDS011;8704;52.006;4.374;2022-08-25T13:04:31;12.50;;;8.48;;
17177;SDS011;8704;52.006;4.374;2022-08-25T13:07:19;11.70;;;6.78;;
17177;SDS011;8704;52.006;4.374;2022-08-25T13:10:06;14.25;;;8.55;;
17177;SDS011;8704;52.006;4.374;2022-08-25T13:12:58;14.00;;;6.68;;
17177;SDS011;8704;52.006;4.374;2022-08-25T13:15:35;7.85;;;5.78;;
17177;SDS011;8704;52.006;4.374;2022-08-25T13:18:13;9.82;;;5.40;;
17177;SDS011;8704;52.006;4.374;2022-08-25T13:20:47;8.38;;;4.30;;
17177;SDS011;8704;52.006;4.374;2022-08-25T13:23:20;10.90;;;5.00;;
17177;SDS011;8704;52.006;4.374;2022-08-25T13:25:55;9.77;;;5.47;;
17177;SDS011;8704;52.006;4.374;2022-08-25T13:28:26;6.47;;;4.57;;
17177;SDS011;8704;52.006;4.374;2022-08-25T13:30:57;10.65;;;4.53;;
17177;SDS011;8704;52.006;4.374;2022-08-25T13:33:28;7.03;;;4.13;;
17177;SDS011;8704;52.006;4.374;2022-08-25T13:35:58;8.43;;;4.60;;
17177;SDS011;8704;52.006;4.374;2022-08-25T13:38:46;8.48;;;3.88;;
17177;SDS011;8704;52.006;4.374;2022-08-25T13:41:23;5.45;;;3.92;;
17177;SDS011;8704;52.006;4.374;2022-08-25T13:43:54;6.90;;;4.35;;
17177;SDS011;8704;52.006;4.374;2022-08-25T13:46:27;7.55;;;6.20;;
17177;SDS011;8704;52.006;4.374;2022-08-25T13:49:00;10.38;;;6.13;;
17177;SDS011;8704;52.006;4.374;2022-08-25T13:51:31;10.25;;;6.13;;
17177;SDS011;8704;52.006;4.374;2022-08-25T13:53:59;11.98;;;8.25;;
17177;SDS011;8704;52.006;4.374;2022-08-25T13:56:31;15.07;;;10.27;;
17177;SDS011;8704;52.006;4.374;2022-08-25T13:59:16;12.00;;;8.88;;
17177;SDS011;8704;52.006;4.374;2022-08-25T14:01:48;7.93;;;7.10;;
17177;SDS011;8704;52.006;4.374;2022-08-25T14:04:19;12.73;;;7.78;;
17177;SDS011;8704;52.006;4.374;2022-08-25T14:07:04;9.63;;;7.55;;
17177;SDS011;8704;52.006;4.374;2022-08-25T14:09:37;15.20;;;7.38;;
17177;SDS011;8704;52.006;4.374;2022-08-25T14:12:26;11.80;;;8.27;;
17177;SDS011;8704;52.006;4.374;2022-08-25T14:15:03;12.18;;;8.40;;
17177;SDS011;8704;52.006;4.374;2022-08-25T14:17:35;9.73;;;6.30;;
17177;SDS011;8704;52.006;4.374;2022-08-25T14:20:14;7.38;;;4.85;;
17177;SDS011;8704;52.006;4.374;2022-08-25T14:22:48;7.60;;;5.22;;
17177;SDS011;8704;52.006;4.374;2022-08-25T14:25:23;9.32;;;5.55;;
17177;SDS011;8704;52.006;4.374;2022-08-25T14:27:56;11.27;;;8.15;;
17177;SDS011;8704;52.006;4.374;2022-08-25T14:30:40;11.80;;;10.60;;
17177;SDS011;8704;52.006;4.374;2022-08-25T14:33:11;15.10;;;11.80;;
17177;SDS011;8704;52.006;4.374;2022-08-25T14:35:41;13.88;;;12.57;;
17177;SDS011;8704;52.006;4.374;2022-08-25T14:38:12;15.43;;;13.32;;
17177;SDS011;8704;52.006;4.374;2022-08-25T14:40:42;16.65;;;14.98;;
17177;SDS011;8704;52.006;4.374;2022-08-25T14:43:12;16.92;;;15.13;;
17177;SDS011;8704;52.006;4.374;2022-08-25T14:45:41;19.30;;;17.35;;
17177;SDS011;8704;52.006;4.374;2022-08-25T14:48:14;20.75;;;18.92;;
17177;SDS011;8704;52.006;4.374;2022-08-25T14:50:49;22.23;;;20.20;;
17177;SDS011;8704;52.006;4.374;2022-08-25T14:53:18;19.40;;;17.60;;
17177;SDS011;8704;52.006;4.374;2022-08-25T14:55:46;18.38;;;16.67;;
17177;SDS011;8704;52.006;4.374;2022-08-25T14:58:18;22.85;;;20.65;;
17177;SDS011;8704;52.006;4.374;2022-08-25T15:00:51;26.15;;;23.90;;
17177;SDS011;8704;52.006;4.374;2022-08-25T15:03:24;26.33;;;23.75;;
17177;SDS011;8704;52.006;4.374;2022-08-25T15:05:57;26.23;;;23.63;;
17177;SDS011;8704;52.006;4.374;2022-08-25T15:08:26;26.52;;;23.83;;
17177;SDS011;8704;52.006;4.374;2022-08-25T15:11:12;30.20;;;27.13;;
17177;SDS011;8704;52.006;4.374;2022-08-25T15:13:43;27.73;;;25.00;;
17177;SDS011;8704;52.006;4.374;2022-08-25T15:16:16;28.17;;;25.58;;
17177;SDS011;8704;52.006;4.374;2022-08-25T15:18:59;30.13;;;27.35;;
17177;SDS011;8704;52.006;4.374;2022-08-25T15:21:32;29.10;;;26.50;;
17177;SDS011;8704;52.006;4.374;2022-08-25T15:24:01;29.00;;;26.20;;
17177;SDS011;8704;52.006;4.374;2022-08-25T15:26:30;28.10;;;25.23;;
17177;SDS011;8704;52.006;4.374;2022-08-25T15:31:31;28.98;;;26.02;;
17177;SDS011;8704;52.006;4.374;2022-08-25T15:33:59;29.05;;;26.35;;
17177;SDS011;8704;52.006;4.374;2022-08-25T15:36:27;26.98;;;23.48;;
17177;SDS011;8704;52.006;4.374;2022-08-25T15:38:55;28.25;;;25.25;;
17177;SDS011;8704;52.006;4.374;2022-08-25T15:41:23;27.23;;;24.50;;
17177;SDS011;8704;52.006;4.374;2022-08-25T15:43:53;24.90;;;22.13;;
17177;SDS011;8704;52.006;4.374;2022-08-25T15:46:23;24.33;;;21.73;;